Terminal Aerodrome Forecast
Issued by NWS

Current Version | Previous Version | Text Only | Print | Product List | Glossary On
Versions: 1 2 3 4 5 6 7 8 9 10 11 12 13 14 15 16 17
000
FTUS42 KMLB 042006 AAA
TAFSFB
TAF AMD
KSFB 042006Z 0420/0518 15010KT P6SM VCTS SCT040CB BKN080
      TEMPO 0420/0423 VRB20G30KT 3SM TSRA BKN020CB OVC040
     FM050000 12006KT P6SM SCT040 OVC100
     FM050300 17003KT P6SM SCT120 BKN250=

USA.gov is the U.S. government's official web portal to all federal, state and local government web resources and services.